createdAt,value
2022-08-03T00:02:13.575Z,21.23
2022-08-03T00:17:16.189Z,21.21
2022-08-03T00:32:18.141Z,21.37
2022-08-03T00:47:24.533Z,21.26
2022-08-03T01:02:27.648Z,21.10
2022-08-03T01:17:40.273Z,21.08
2022-08-03T01:33:01.016Z,20.83
2022-08-03T01:48:06.588Z,20.73
2022-08-03T02:03:11.909Z,20.56
2022-08-03T02:18:15.428Z,20.68
2022-08-03T02:33:27.616Z,20.59
2022-08-03T02:48:33.216Z,20.76
2022-08-03T03:03:39.976Z,20.74
2022-08-03T03:18:49.990Z,20.60
2022-08-03T03:33:51.957Z,20.95
2022-08-03T03:48:54.181Z,21.17
2022-08-03T04:03:56.098Z,21.46
2022-08-03T04:19:10.717Z,21.96
2022-08-03T04:34:12.795Z,22.72
2022-08-03T04:49:15.340Z,22.77
2022-08-03T05:04:17.340Z,23.25
2022-08-03T05:19:19.317Z,23.57
2022-08-03T05:34:21.183Z,24.48
2022-08-03T05:49:23.812Z,24.02
2022-08-03T06:04:25.709Z,24.60
2022-08-03T06:19:27.720Z,24.91
2022-08-03T06:34:32.733Z,24.70
2022-08-03T06:49:38.677Z,24.55
2022-08-03T07:04:40.667Z,25.06
2022-08-03T07:19:42.601Z,25.72
2022-08-03T07:34:44.481Z,25.87
2022-08-03T07:49:46.697Z,26.28
2022-08-03T08:04:48.598Z,27.09
2022-08-03T08:19:51.749Z,27.65
2022-08-03T08:34:55.486Z,27.72
2022-08-03T08:50:09.914Z,27.46
2022-08-03T09:05:18.228Z,27.43
2022-08-03T09:20:22.010Z,28.34
2022-08-03T09:35:51.558Z,28.64
2022-08-03T09:50:57.026Z,29.47
2022-08-03T10:06:15.611Z,29.95
2022-08-03T10:21:19.984Z,29.17
2022-08-03T10:36:24.712Z,29.47
2022-08-03T10:51:32.405Z,31.09
2022-08-03T11:06:37.278Z,31.24
2022-08-03T11:21:52.367Z,32.00
2022-08-03T11:37:21.851Z,29.27
2022-08-03T11:52:27.153Z,27.72
2022-08-03T12:08:03.128Z,27.32
2022-08-03T12:22:53.249Z,26.77
2022-08-03T12:37:55.277Z,26.30
2022-08-03T12:52:58.858Z,26.14
2022-08-03T13:08:00.947Z,25.81
2022-08-03T13:23:03.134Z,26.22
2022-08-03T13:38:05.075Z,26.10
2022-08-03T13:53:07.209Z,26.21
2022-08-03T14:08:09.286Z,26.35
2022-08-03T14:23:11.291Z,26.63
2022-08-03T14:38:15.074Z,26.64
2022-08-03T14:53:20.131Z,26.43
2022-08-03T15:08:23.645Z,26.36
2022-08-03T15:23:26.578Z,26.15
2022-08-03T15:38:28.544Z,25.84
2022-08-03T15:53:30.645Z,25.57
2022-08-03T16:08:32.720Z,25.07
2022-08-03T16:23:37.707Z,24.63
2022-08-03T16:38:40.000Z,24.30
2022-08-03T16:54:05.798Z,24.20
2022-08-03T17:09:09.833Z,24.02
2022-08-03T17:24:31.441Z,23.88
2022-08-03T17:55:56.534Z,23.45
2022-08-03T18:10:49.697Z,23.38
2022-08-03T18:25:57.908Z,23.34
2022-08-03T18:41:00.190Z,23.36
2022-08-03T18:56:24.472Z,23.31
2022-08-03T19:12:12.553Z,23.25
2022-08-03T19:27:01.449Z,23.34
2022-08-03T19:57:37.253Z,23.39
2022-08-03T20:12:39.798Z,23.40
2022-08-03T20:28:06.917Z,23.20
2022-08-03T20:43:07.349Z,23.16
2022-08-03T20:58:14.449Z,22.99
2022-08-03T21:13:02.803Z,23.40
2022-08-03T21:13:28.326Z,23.03
2022-08-03T21:28:30.401Z,23.07
2022-08-03T21:43:32.280Z,23.04
2022-08-03T21:58:44.997Z,22.79
2022-08-03T22:13:53.252Z,22.70
2022-08-03T22:28:57.536Z,22.41
2022-08-03T22:43:59.787Z,22.07
2022-08-03T22:59:40.729Z,21.95
2022-08-03T23:14:41.544Z,21.78
2022-08-03T23:29:44.090Z,21.81
2022-08-03T23:44:46.792Z,21.95
